Time;durP1;ratioP1;P1;durP2;ratioP2;P2;SDS_P1;SDS_P2;PMS_P1;PMS_P2;Temp;Humidity;BMP_temperature;BMP_pressure;BME280_temperature;BME280_humidity;BME280_pressure;Samples;Min_cycle;Max_cycle;Signal;HPM_P1;HPM_P2
2022/05/01 00:00:36;;;;;;;9.27;8.38;;;;;;;3.20;100.00;93411.34;2115261;28;20053;-80
2022/05/01 00:01:39;;;;;;;9.82;8.93;;;;;;;3.17;100.00;93409.44;2123013;27;20443;-81
2022/05/01 00:02:41;;;;;;;9.15;8.25;;;;;;;3.11;100.00;93403.69;2102446;27;20059;-81
2022/05/01 00:03:42;;;;;;;10.70;9.38;;;;;;;3.18;100.00;93400.38;2115363;27;20097;-82
2022/05/01 00:04:43;;;;;;;8.73;7.93;;;;;;;3.31;100.00;93411.47;2115071;28;20020;-81
2022/05/01 00:05:44;;;;;;;9.85;8.95;;;;;;;3.71;100.00;93408.06;2106679;28;20027;-82
2022/05/01 00:06:45;;;;;;;11.65;8.95;;;;;;;3.60;100.00;93407.22;2106503;28;20023;-82
2022/05/01 00:07:46;;;;;;;9.88;8.85;;;;;;;3.38;100.00;93408.88;2115365;28;20019;-81
2022/05/01 00:08:47;;;;;;;11.35;9.68;;;;;;;3.23;100.00;93406.09;2123662;27;20027;-81
2022/05/01 00:09:48;;;;;;;10.52;9.38;;;;;;;3.56;100.00;93409.06;2115290;28;20024;-82
2022/05/01 00:10:49;;;;;;;13.27;9.85;;;;;;;3.84;100.00;93405.91;2115043;28;20478;-83
2022/05/01 00:11:50;;;;;;;11.60;8.95;;;;;;;3.60;100.00;93405.34;2124962;27;20368;-79
2022/05/01 00:12:51;;;;;;;10.55;9.10;;;;;;;3.35;100.00;93402.47;2123429;27;20428;-82
2022/05/01 00:13:52;;;;;;;10.85;9.60;;;;;;;3.27;100.00;93414.06;2105921;28;20016;-82
2022/05/01 00:14:53;;;;;;;12.07;9.30;;;;;;;3.29;100.00;93409.16;2106440;28;20066;-83
2022/05/01 00:15:54;;;;;;;10.20;9.20;;;;;;;3.25;100.00;93411.03;2115122;27;20027;-82
2022/05/01 00:16:55;;;;;;;11.15;9.52;;;;;;;3.10;100.00;93419.91;2123737;27;20022;-82
2022/05/01 00:17:57;;;;;;;11.40;9.57;;;;;;;2.86;100.00;93419.28;2132264;27;20084;-82
2022/05/01 00:18:59;;;;;;;11.40;9.15;;;;;;;2.93;100.00;93419.34;2132026;27;20075;-80
2022/05/01 00:19:59;;;;;;;12.00;10.07;;;;;;;2.90;100.00;93422.72;2123541;27;20460;-83
2022/05/01 00:21:00;;;;;;;10.43;9.35;;;;;;;3.02;100.00;93413.78;2115034;28;20023;-79
2022/05/01 00:22:03;;;;;;;10.40;9.40;;;;;;;3.04;100.00;93414.22;2100198;28;20021;-81
2022/05/01 00:23:04;;;;;;;12.65;9.73;;;;;;;2.86;100.00;93414.00;2098642;28;20497;-81
2022/05/01 00:24:06;;;;;;;11.38;10.05;;;;;;;3.07;100.00;93415.34;2106891;27;20053;-82
2022/05/01 00:25:08;;;;;;;11.35;10.15;;;;;;;3.02;100.00;93416.44;2123287;27;20038;-80
2022/05/01 00:26:11;;;;;;;10.95;9.82;;;;;;;3.10;100.00;93412.75;2109745;28;20560;-80
2022/05/01 00:27:13;;;;;;;11.93;10.00;;;;;;;3.03;100.00;93410.06;2098991;28;20029;-82
2022/05/01 00:28:14;;;;;;;11.27;9.52;;;;;;;3.14;100.00;93420.72;2098726;28;20028;-81
2022/05/01 00:29:15;;;;;;;11.75;9.77;;;;;;;3.07;100.00;93413.47;2098531;28;20062;-80
2022/05/01 00:30:16;;;;;;;11.73;10.07;;;;;;;2.91;100.00;93405.00;2106475;28;20024;-81
2022/05/01 00:31:17;;;;;;;11.10;9.55;;;;;;;2.78;100.00;93402.59;2106635;28;20894;-80
2022/05/01 00:32:19;;;;;;;11.48;10.25;;;;;;;2.64;100.00;93406.94;2119802;27;20023;-80
2022/05/01 00:37:19;;;;;;;10.95;9.80;;;;;;;2.40;100.00;93394.94;2125136;27;20536;-82
2022/05/01 00:38:20;;;;;;;12.43;9.80;;;;;;;2.43;100.00;93402.13;2114422;28;20035;-83
2022/05/01 00:39:21;;;;;;;13.52;10.05;;;;;;;2.42;100.00;93401.38;2106508;28;20132;-82
2022/05/01 00:40:22;;;;;;;11.30;10.10;;;;;;;2.30;100.00;93395.56;2106619;28;20020;-82
2022/05/01 00:41:26;;;;;;;10.93;9.82;;;;;;;2.23;100.00;93394.31;2114892;28;20379;-80
2022/05/01 00:42:31;;;;;;;11.15;9.98;;;;;;;2.24;100.00;93395.88;2115457;27;20039;-81
2022/05/01 00:43:31;;;;;;;12.15;10.13;;;;;;;2.28;100.00;93398.53;2124052;27;20046;-81
2022/05/01 00:44:33;;;;;;;12.73;10.10;;;;;;;2.22;100.00;93399.97;2114922;28;20500;-80
2022/05/01 00:45:34;;;;;;;11.55;10.10;;;;;;;2.72;100.00;93392.69;2114934;28;20028;-80
2022/05/01 00:46:41;;;;;;;10.70;9.63;;;;;;;2.85;100.00;93396.63;2114888;28;20020;-82
2022/05/01 00:47:42;;;;;;;11.93;9.48;;;;;;;2.83;100.00;93393.59;2115823;27;20030;-81
2022/05/01 00:48:43;;;;;;;13.15;10.05;;;;;;;2.97;100.00;93396.38;2123466;27;20093;-83
2022/05/01 00:49:44;;;;;;;11.05;9.73;;;;;;;2.84;100.00;93402.25;2105957;28;20502;-82
2022/05/01 00:50:45;;;;;;;11.13;9.82;;;;;;;2.62;100.00;93398.59;2106203;28;20486;-80
2022/05/01 00:51:52;;;;;;;11.95;10.40;;;;;;;2.62;100.00;93398.59;2106440;28;20382;-80
2022/05/01 00:52:54;;;;;;;14.77;10.50;;;;;;;2.74;100.00;93387.81;2114918;28;20480;-81
2022/05/01 00:53:55;;;;;;;11.98;9.80;;;;;;;2.74;100.00;93396.50;2114618;28;20043;-81
2022/05/01 00:54:56;;;;;;;12.63;10.13;;;;;;;2.81;100.00;93402.97;2114843;27;20613;-80
2022/05/01 00:55:57;;;;;;;13.57;10.18;;;;;;;2.60;100.00;93398.22;2114747;28;20036;-80
2022/05/01 00:57:02;;;;;;;11.20;9.93;;;;;;;2.67;100.00;93399.03;2106392;28;20028;-81
2022/05/01 00:58:07;;;;;;;12.35;9.98;;;;;;;2.31;100.00;93391.78;2115403;27;20024;-81
2022/05/01 00:59:10;;;;;;;11.68;10.10;;;;;;;2.15;100.00;93392.72;2114724;28;20038;-82
2022/05/01 01:00:11;;;;;;;15.27;10.32;;;;;;;2.09;100.00;93388.84;2098471;28;20089;-82
2022/05/01 01:01:13;;;;;;;13.48;10.65;;;;;;;2.16;100.00;93388.22;2106433;28;20051;-80
2022/05/01 01:02:15;;;;;;;11.65;9.73;;;;;;;2.13;100.00;93387.03;2114020;28;20019;-81
2022/05/01 01:03:22;;;;;;;12.93;10.35;;;;;;;2.05;100.00;93382.75;2114872;27;20019;-79
2022/05/01 01:04:23;;;;;;;11.45;10.20;;;;;;;1.95;100.00;93394.69;2107845;27;20024;-80
2022/05/01 01:05:25;;;;;;;9.98;8.98;;;;;;;2.04;100.00;93388.41;2106324;28;20024;-81
2022/05/01 01:06:26;;;;;;;11.15;9.70;;;;;;;2.07;100.00;93388.47;2106325;28;20027;-79
2022/05/01 01:07:27;;;;;;;11.82;10.38;;;;;;;1.91;100.00;93382.56;2120653;27;20110;-82
2022/05/01 01:08:28;;;;;;;12.50;9.93;;;;;;;1.87;100.00;93387.78;2098014;28;20111;-82
2022/05/01 01:09:30;;;;;;;11.07;9.98;;;;;;;1.88;100.00;93393.81;2097939;28;20021;-83
2022/05/01 01:10:31;;;;;;;11.05;9.95;;;;;;;1.72;100.00;93389.44;2097800;28;20020;-81
2022/05/01 01:11:32;;;;;;;12.55;10.32;;;;;;;1.71;100.00;93397.69;2096094;28;20512;-82
2022/05/01 01:13:52;;;;;;;11.90;9.43;;;;;;;1.76;100.00;93392.13;2122248;27;20494;-80
2022/05/01 01:14:53;;;;;;;13.25;9.82;;;;;;;1.91;100.00;93390.47;2114362;28;20031;-81
2022/05/01 01:15:56;;;;;;;12.25;10.90;;;;;;;1.81;100.00;93391.06;2123229;27;20023;-81
2022/05/01 01:16:57;;;;;;;11.45;10.35;;;;;;;1.82;100.00;93384.69;2123059;27;20023;-82
2022/05/01 01:17:58;;;;;;;11.50;10.30;;;;;;;1.84;100.00;93388.47;2123016;27;20029;-83
2022/05/01 01:18:59;;;;;;;10.50;9.40;;;;;;;1.95;100.00;93380.75;2129381;27;20449;-80
2022/05/01 01:20:00;;;;;;;11.77;10.07;;;;;;;1.85;100.00;93382.09;2114653;28;20582;-80
2022/05/01 01:21:01;;;;;;;10.98;9.77;;;;;;;1.94;100.00;93387.91;2097845;28;20032;-83
2022/05/01 01:22:07;;;;;;;13.25;10.00;;;;;;;2.07;100.00;93382.44;2098102;28;20021;-80
2022/05/01 01:23:08;;;;;;;11.65;10.15;;;;;;;1.98;100.00;93385.31;2098824;28;20103;-80
2022/05/01 01:24:10;;;;;;;12.88;10.65;;;;;;;2.04;100.00;93383.13;2106229;28;20016;-81
2022/05/01 01:25:11;;;;;;;12.32;10.32;;;;;;;1.88;100.00;93378.75;2114755;27;20027;-80
2022/05/01 01:26:13;;;;;;;11.88;9.77;;;;;;;1.78;100.00;93382.00;2122085;27;20019;-82
2022/05/01 01:27:15;;;;;;;12.68;10.27;;;;;;;1.87;100.00;93387.78;2114576;27;20019;-82
2022/05/01 01:28:18;;;;;;;13.45;10.75;;;;;;;1.83;100.00;93379.06;2123355;27;20091;-81
2022/05/01 01:32:05;;;;;;;10.65;9.55;;;;;;;1.82;100.00;93384.69;2125964;27;20069;-82
2022/05/01 01:33:07;;;;;;;14.13;10.32;;;;;;;1.78;100.00;93384.63;2123118;27;20027;-80
2022/05/01 01:34:19;;;;;;;12.77;9.77;;;;;;;1.64;100.00;93385.16;2114474;28;20020;-82
2022/05/01 01:35:24;;;;;;;13.20;9.48;;;;;;;1.60;100.00;93380.94;2116166;27;20593;-80
2022/05/01 01:36:28;;;;;;;11.15;9.40;;;;;;;1.77;100.00;93377.84;2122991;27;20019;-80
2022/05/01 01:37:30;;;;;;;14.35;10.35;;;;;;;1.64;100.00;93387.81;2106439;27;20073;-81
2022/05/01 01:38:31;;;;;;;13.05;11.10;;;;;;;1.45;100.00;93383.38;2105884;28;20120;-79
2022/05/01 01:39:33;;;;;;;13.32;10.55;;;;;;;1.34;100.00;93379.00;2106130;28;20077;-80
2022/05/01 01:40:44;;;;;;;14.35;11.57;;;;;;;1.34;100.00;93387.66;2123146;27;20404;-80
2022/05/01 01:41:47;;;;;;;12.05;10.30;;;;;;;1.39;100.00;93390.00;2114441;28;20058;-81
2022/05/01 01:42:54;;;;;;;13.30;10.95;;;;;;;1.42;100.00;93388.56;2098139;28;20051;-82
2022/05/01 01:43:56;;;;;;;12.82;10.23;;;;;;;1.33;100.00;93386.16;2099213;28;20024;-80
2022/05/01 01:44:59;;;;;;;12.65;10.15;;;;;;;1.36;100.00;93392.56;2106298;28;20260;-82
2022/05/01 01:46:00;;;;;;;12.02;10.63;;;;;;;1.44;100.00;93389.72;2106146;28;20047;-81
2022/05/01 01:47:01;;;;;;;11.90;10.00;;;;;;;1.38;100.00;93393.75;2112344;28;20032;-79
2022/05/01 01:48:16;;;;;;;14.45;10.48;;;;;;;1.47;100.00;93390.91;2114681;28;20016;-80
2022/05/01 01:49:17;;;;;;;11.80;10.55;;;;;;;1.41;100.00;93394.94;2121282;27;20063;-79
2022/05/01 01:50:18;;;;;;;13.77;9.77;;;;;;;1.42;100.00;93389.31;2113787;28;20459;-80
2022/05/01 01:51:20;;;;;;;14.57;10.07;;;;;;;1.50;100.00;93390.22;2105844;28;20114;-80
2022/05/01 01:52:21;;;;;;;12.60;10.05;;;;;;;1.50;100.00;93395.47;2097637;28;20074;-80
2022/05/01 01:53:22;;;;;;;12.65;9.93;;;;;;;1.44;100.00;93391.59;2099297;28;20028;-81
2022/05/01 01:54:24;;;;;;;11.65;10.05;;;;;;;1.58;100.00;93398.97;2105989;28;20103;-82
2022/05/01 01:55:25;;;;;;;10.60;9.23;;;;;;;1.79;100.00;93390.66;2105965;28;20020;-81
2022/05/01 01:56:26;;;;;;;13.10;9.80;;;;;;;1.65;100.00;93393.81;2097666;28;20399;-82
2022/05/01 01:57:27;;;;;;;14.07;10.77;;;;;;;1.54;100.00;93388.41;2109303;28;20136;-80
2022/05/01 01:58:29;;;;;;;12.90;10.38;;;;;;;1.57;100.00;93392.19;2114330;27;20028;-82
2022/05/01 01:59:31;;;;;;;11.35;10.10;;;;;;;1.51;100.00;93389.09;2114477;28;20023;-82
2022/05/01 02:00:33;;;;;;;14.93;9.95;;;;;;;1.50;100.00;93396.22;2110523;27;20023;-82
2022/05/01 02:01:34;;;;;;;11.77;10.40;;;;;;;1.68;100.00;93393.88;2105620;27;20687;-80
2022/05/01 02:02:35;;;;;;;15.63;11.05;;;;;;;1.67;100.00;93397.66;2113982;28;20484;-83
2022/05/01 02:03:36;;;;;;;14.82;10.95;;;;;;;1.59;100.00;93389.97;2114433;28;20019;-79
2022/05/01 02:04:37;;;;;;;12.00;10.43;;;;;;;1.81;100.00;93386.56;2122485;27;20073;-82
2022/05/01 02:05:39;;;;;;;14.95;10.73;;;;;;;1.89;100.00;93384.78;2122656;27;20514;-81
2022/05/01 02:06:40;;;;;;;13.13;10.90;;;;;;;1.93;100.00;93386.38;2114629;27;20833;-82
2022/05/01 02:07:42;;;;;;;12.63;10.85;;;;;;;1.89;100.00;93392.69;2110574;28;20106;-82
2022/05/01 02:08:43;;;;;;;15.80;10.80;;;;;;;1.98;100.00;93385.31;2097840;28;20025;-80
2022/05/01 02:09:44;;;;;;;15.10;10.77;;;;;;;1.97;100.00;93376.63;2106058;28;20047;-80
2022/05/01 02:10:46;;;;;;;14.00;11.50;;;;;;;2.07;100.00;93382.44;2114143;28;20488;-80
2022/05/01 02:13:02;;;;;;;14.55;10.88;;;;;;;1.91;100.00;93388.59;2139377;27;20177;-81
2022/05/01 02:14:05;;;;;;;15.32;11.10;;;;;;;2.24;100.00;93372.13;2120597;28;20039;-81
2022/05/01 02:15:06;;;;;;;13.00;11.00;;;;;;;2.26;100.00;93369.88;2105274;28;20020;-80
2022/05/01 02:16:08;;;;;;;14.80;11.10;;;;;;;2.19;100.00;93363.75;2121781;27;20102;-80
2022/05/01 02:17:10;;;;;;;14.93;10.85;;;;;;;2.17;100.00;93373.91;2130291;27;20011;-81
2022/05/01 02:18:11;;;;;;;13.50;10.82;;;;;;;2.22;100.00;93371.72;2113078;28;20143;-81
2022/05/01 02:19:12;;;;;;;14.68;11.00;;;;;;;2.21;100.00;93374.72;2113395;27;20366;-80
2022/05/01 02:20:13;;;;;;;13.50;11.10;;;;;;;2.19;100.00;93375.03;2113229;28;20032;-81
2022/05/01 02:22:35;;;;;;;13.82;10.43;;;;;;;2.12;100.00;93374.22;2124616;27;20460;-82
2022/05/01 02:23:36;;;;;;;14.95;11.05;;;;;;;2.22;100.00;93373.59;2121568;28;20032;-82
2022/05/01 02:24:37;;;;;;;13.70;10.63;;;;;;;2.34;100.00;93367.34;2104691;28;20024;-79
2022/05/01 02:25:40;;;;;;;14.90;11.75;;;;;;;2.45;100.00;93365.59;2112648;28;20143;-79
2022/05/01 02:26:41;;;;;;;12.65;10.25;;;;;;;2.46;100.00;93365.25;2113368;27;20024;-81
2022/05/01 02:27:42;;;;;;;12.73;10.52;;;;;;;2.42;100.00;93371.59;2121498;28;20460;-81
2022/05/01 02:28:43;;;;;;;12.10;10.45;;;;;;;2.44;100.00;93361.44;2121528;27;20376;-81
2022/05/01 02:29:44;;;;;;;12.68;10.32;;;;;;;2.46;100.00;93359.97;2129896;27;20042;-82
2022/05/01 02:30:46;;;;;;;14.45;10.65;;;;;;;2.47;100.00;93355.47;2121511;28;20019;-81
2022/05/01 02:31:53;;;;;;;13.10;10.88;;;;;;;2.32;100.00;93359.78;2113142;28;20027;-81
2022/05/01 02:32:54;;;;;;;11.75;10.55;;;;;;;2.37;100.00;93353.44;2114887;27;20024;-80
2022/05/01 02:33:55;;;;;;;11.52;9.82;;;;;;;2.08;100.00;93360.22;2112964;28;20022;-81
2022/05/01 02:34:56;;;;;;;14.77;9.88;;;;;;;1.89;100.00;93348.66;2097589;28;20107;-82
2022/05/01 02:35:58;;;;;;;12.60;10.50;;;;;;;1.76;100.00;93350.72;2104514;28;20520;-81
2022/05/01 02:36:59;;;;;;;12.13;9.80;;;;;;;1.68;100.00;93350.97;2111104;27;20121;-81
2022/05/01 02:38:02;;;;;;;11.63;9.52;;;;;;;1.58;100.00;93359.44;2114346;28;20051;-82
2022/05/01 02:39:04;;;;;;;10.82;9.68;;;;;;;1.70;100.00;93346.84;2105117;28;20024;-82
2022/05/01 02:40:06;;;;;;;10.77;9.52;;;;;;;1.63;100.00;93351.28;2105027;28;20500;-81
2022/05/01 02:41:07;;;;;;;11.68;9.68;;;;;;;1.55;100.00;93353.03;2112909;28;20034;-81
2022/05/01 02:42:08;;;;;;;11.75;10.55;;;;;;;1.57;100.00;93353.44;2104575;28;20024;-80
2022/05/01 02:43:09;;;;;;;12.07;10.45;;;;;;;1.54;100.00;93354.16;2107895;28;20026;-81
2022/05/01 02:44:10;;;;;;;11.45;10.10;;;;;;;1.52;100.00;93354.50;2121375;27;20027;-80
2022/05/01 02:45:11;;;;;;;13.15;9.88;;;;;;;1.57;100.00;93347.41;2121232;28;20050;-80
2022/05/01 02:46:13;;;;;;;12.50;9.85;;;;;;;1.75;100.00;93345.78;2104571;28;20465;-80
2022/05/01 02:47:14;;;;;;;10.98;9.80;;;;;;;1.57;100.00;93350.78;2121801;27;20049;-82
2022/05/01 02:48:15;;;;;;;11.32;10.20;;;;;;;1.57;100.00;93347.41;2121363;28;20023;-80
2022/05/01 02:49:16;;;;;;;13.00;10.65;;;;;;;1.70;100.00;93348.72;2112595;28;20093;-81
2022/05/01 02:50:17;;;;;;;11.70;10.23;;;;;;;1.66;100.00;93337.38;2120669;27;20531;-80
2022/05/01 02:51:19;;;;;;;11.45;10.20;;;;;;;1.70;100.00;93340.84;2112960;28;20031;-80
2022/05/01 02:52:21;;;;;;;13.07;10.48;;;;;;;1.87;100.00;93345.59;2104534;28;20481;-82
2022/05/01 02:53:22;;;;;;;13.35;10.10;;;;;;;1.80;100.00;93342.09;2113240;27;20042;-80
2022/05/01 02:54:23;;;;;;;13.23;10.73;;;;;;;1.72;100.00;93341.25;2112775;28;20047;-80
2022/05/01 02:55:24;;;;;;;12.27;10.25;;;;;;;1.59;100.00;93337.28;2104359;28;20028;-80
2022/05/01 02:56:26;;;;;;;13.10;10.00;;;;;;;1.45;100.00;93341.22;2104577;28;20058;-82
2022/05/01 02:57:27;;;;;;;13.65;10.45;;;;;;;1.33;100.00;93343.28;2113206;27;20026;-79
2022/05/01 02:58:29;;;;;;;12.02;10.38;;;;;;;1.19;100.00;93341.91;2112867;28;20019;-82
2022/05/01 02:59:30;;;;;;;14.85;11.50;;;;;;;1.27;100.00;93332.25;2104701;28;20058;-79
2022/05/01 03:00:31;;;;;;;14.85;11.65;;;;;;;1.29;100.00;93337.94;2112886;28;20423;-82
2022/05/01 03:01:32;;;;;;;12.18;10.48;;;;;;;1.26;100.00;93333.38;2112528;27;20086;-80
2022/05/01 03:02:33;;;;;;;13.05;11.48;;;;;;;1.42;100.00;93326.13;2112428;28;20039;-81
2022/05/01 03:03:35;;;;;;;12.75;10.45;;;;;;;1.51;100.00;93326.63;2104589;28;20028;-82
2022/05/01 03:04:36;;;;;;;11.85;10.52;;;;;;;1.48;100.00;93322.06;2112866;27;20122;-81
2022/05/01 03:05:37;;;;;;;12.32;10.50;;;;;;;1.60;100.00;93323.00;2117468;28;20496;-79
2022/05/01 03:06:38;;;;;;;12.43;10.68;;;;;;;1.56;100.00;93317.66;2104273;28;20036;-80
2022/05/01 03:07:55;;;;;;;13.48;10.70;;;;;;;1.47;100.00;93320.53;2112587;28;20076;-80
2022/05/01 03:08:56;;;;;;;11.95;9.48;;;;;;;1.49;100.00;93326.22;2106463;28;20071;-80
2022/05/01 03:09:57;;;;;;;13.75;9.73;;;;;;;1.50;100.00;93325.13;2095857;28;20024;-80
2022/05/01 03:10:58;;;;;;;11.23;10.02;;;;;;;1.34;100.00;93328.97;2104156;28;20047;-79
2022/05/01 03:12:00;;;;;;;14.25;10.63;;;;;;;1.36;100.00;93329.38;2095526;28;20157;-80
2022/05/01 03:13:01;;;;;;;13.55;10.63;;;;;;;1.17;100.00;93325.69;2096203;28;20029;-81
2022/05/01 03:14:03;;;;;;;11.77;10.38;;;;;;;1.26;100.00;93331.50;2103231;28;20027;-82
2022/05/01 03:15:08;;;;;;;12.48;10.75;;;;;;;1.14;100.00;93323.78;2096054;28;20020;-81
2022/05/01 03:16:09;;;;;;;12.48;10.77;;;;;;;1.01;100.00;93327.69;2091985;28;20052;-82
2022/05/01 03:17:10;;;;;;;12.43;11.00;;;;;;;1.10;100.00;93316.91;2104379;28;20406;-80
2022/05/01 03:22:10;;;;;;;11.00;9.02;;;;;;;1.12;100.00;93317.34;2121105;28;20070;-82
2022/05/01 03:23:11;;;;;;;12.25;9.82;;;;;;;1.11;100.00;93319.22;2104281;28;20125;-82
2022/05/01 03:24:12;;;;;;;13.48;10.35;;;;;;;1.21;100.00;93313.34;2099482;28;20024;-81
2022/05/01 03:25:13;;;;;;;11.50;9.88;;;;;;;1.26;100.00;93307.03;2106566;28;20027;-80
2022/05/01 03:26:18;;;;;;;10.82;9.45;;;;;;;1.17;100.00;93317.81;2106111;28;20020;-79
2022/05/01 03:27:19;;;;;;;11.30;9.85;;;;;;;1.39;100.00;93308.38;2099061;28;20617;-82
2022/05/01 03:28:21;;;;;;;12.63;9.75;;;;;;;1.28;100.00;93307.47;2098669;28;20112;-80
2022/05/01 03:29:22;;;;;;;11.05;9.95;;;;;;;1.22;100.00;93306.22;2090619;28;20059;-81
2022/05/01 03:30:23;;;;;;;13.35;11.02;;;;;;;1.16;100.00;93308.38;2098879;28;20052;-81
2022/05/01 03:31:27;;;;;;;12.68;10.23;;;;;;;1.11;100.00;93311.31;2106849;28;20024;-82
2022/05/01 03:32:28;;;;;;;14.55;11.15;;;;;;;1.07;100.00;93315.00;2106893;28;20017;-80
2022/05/01 03:33:31;;;;;;;17.55;12.35;;;;;;;1.13;100.00;93316.22;2098430;28;20035;-80
2022/05/01 03:34:32;;;;;;;15.30;11.63;;;;;;;1.09;100.00;93310.88;2099238;28;20582;-81
2022/05/01 03:35:36;;;;;;;12.55;11.05;;;;;;;1.03;100.00;93322.81;2115162;28;20027;-81
2022/05/01 03:36:38;;;;;;;13.43;11.32;;;;;;;0.92;100.00;93317.41;2099589;28;20035;-81
2022/05/01 03:37:41;;;;;;;14.57;11.20;;;;;;;0.98;100.00;93305.47;2097972;28;20110;-80
2022/05/01 03:38:43;;;;;;;14.68;13.00;;;;;;;1.02;100.00;93308.16;2090472;28;20559;-80
2022/05/01 03:39:44;;;;;;;13.50;12.00;;;;;;;1.02;100.00;93307.41;2098773;28;20159;-81
2022/05/01 03:40:47;;;;;;;10.88;9.50;;;;;;;1.09;100.00;93308.25;2098627;28;20021;-82
2022/05/01 03:41:49;;;;;;;11.63;9.85;;;;;;;1.15;100.00;93304.25;2099001;28;20032;-80
2022/05/01 03:42:50;;;;;;;11.85;9.15;;;;;;;1.10;100.00;93301.91;2090149;28;20083;-81
2022/05/01 03:43:51;;;;;;;13.90;10.00;;;;;;;1.04;100.00;93300.66;2082094;28;20064;-80
2022/05/01 03:44:52;;;;;;;11.98;10.40;;;;;;;0.95;100.00;93308.78;2090986;28;20044;-80
2022/05/01 03:45:53;;;;;;;14.52;10.48;;;;;;;0.90;100.00;93303.81;2106753;28;20800;-80
2022/05/01 03:46:54;;;;;;;13.23;10.65;;;;;;;0.97;100.00;93295.28;2098474;28;20024;-82
2022/05/01 03:47:55;;;;;;;12.55;11.20;;;;;;;0.91;100.00;93301.94;2106871;28;20052;-78
2022/05/01 03:48:57;;;;;;;14.75;11.77;;;;;;;1.03;100.00;93293.88;2106836;28;20713;-81
2022/05/01 03:49:58;;;;;;;15.00;10.90;;;;;;;1.06;100.00;93297.69;2097929;28;20719;-80
2022/05/01 03:51:00;;;;;;;14.75;11.90;;;;;;;1.04;100.00;93292.00;2115077;28;20065;-82
2022/05/01 03:52:01;;;;;;;13.45;10.90;;;;;;;0.95;100.00;93306.16;2106745;28;20488;-79
2022/05/01 03:53:04;;;;;;;12.13;10.23;;;;;;;0.97;100.00;93298.69;2098634;28;20080;-80
2022/05/01 03:54:05;;;;;;;13.45;11.27;;;;;;;0.96;100.00;93299.75;2106662;28;20027;-79
2022/05/01 03:55:07;;;;;;;13.73;11.43;;;;;;;1.04;100.00;93298.03;2098337;28;20021;-82
2022/05/01 03:56:10;;;;;;;17.05;11.48;;;;;;;1.07;100.00;93302.59;2115091;28;20034;-81
2022/05/01 03:57:11;;;;;;;15.93;12.32;;;;;;;1.04;100.00;93298.03;2106498;28;20024;-79
2022/05/01 03:58:13;;;;;;;14.10;11.93;;;;;;;1.02;100.00;93296.88;2106575;28;20469;-81
2022/05/01 03:59:14;;;;;;;16.33;11.55;;;;;;;1.08;100.00;93292.81;2106663;28;20031;-81
2022/05/01 04:00:20;;;;;;;15.95;11.68;;;;;;;1.11;100.00;93295.53;2106701;28;20024;-81
2022/05/01 04:01:21;;;;;;;14.77;11.63;;;;;;;1.29;100.00;93302.94;2098664;28;20351;-81
2022/05/01 04:02:22;;;;;;;14.10;11.45;;;;;;;1.17;100.00;93303.88;2096969;28;20825;-79
2022/05/01 04:03:24;;;;;;;11.95;10.52;;;;;;;1.10;100.00;93298.47;2097848;28;20028;-81
2022/05/01 04:04:25;;;;;;;15.38;11.68;;;;;;;1.10;100.00;93296.63;2100449;28;20409;-81
2022/05/01 04:05:27;;;;;;;12.80;10.75;;;;;;;1.13;100.00;93303.06;2089372;28;20119;-81
2022/05/01 04:06:28;;;;;;;17.88;12.18;;;;;;;0.91;100.00;93307.97;2098166;28;20024;-79
2022/05/01 04:07:29;;;;;;;16.80;12.70;;;;;;;0.98;100.00;93315.22;2099614;28;20021;-79
2022/05/01 04:08:30;;;;;;;13.95;11.45;;;;;;;0.89;100.00;93312.81;2090041;28;20021;-81
2022/05/01 04:09:30;;;;;;;12.45;10.63;;;;;;;1.02;100.00;93310.78;2090055;28;20052;-81
2022/05/01 04:10:32;;;;;;;14.00;10.95;;;;;;;1.03;100.00;93311.53;2090050;28;20027;-79
2022/05/01 04:11:33;;;;;;;14.82;11.00;;;;;;;1.04;100.00;93311.19;2098291;28;20029;-80
2022/05/01 04:12:38;;;;;;;13.90;11.27;;;;;;;0.95;100.00;93308.78;2097963;28;20040;-78
2022/05/01 04:13:39;;;;;;;14.32;11.85;;;;;;;1.03;100.00;93311.53;2090038;28;20037;-81
2022/05/01 04:14:40;;;;;;;14.82;11.38;;;;;;;1.03;100.00;93308.91;2089551;28;20061;-79
2022/05/01 04:15:42;;;;;;;19.20;12.05;;;;;;;1.21;100.00;93305.47;2089972;28;20112;-79
2022/05/01 04:16:43;;;;;;;16.90;11.60;;;;;;;1.13;100.00;93303.06;2090038;28;20025;-80
2022/05/01 04:17:44;;;;;;;15.98;11.70;;;;;;;1.18;100.00;93311.41;2085182;28;20024;-80
2022/05/01 04:18:45;;;;;;;13.95;11.00;;;;;;;1.10;100.00;93312.44;2090059;28;20554;-81
2022/05/01 04:19:47;;;;;;;13.80;10.65;;;;;;;1.13;100.00;93310.97;2089943;28;20024;-81
2022/05/01 04:20:48;;;;;;;15.35;11.18;;;;;;;1.26;100.00;93302.53;2090058;28;20025;-79
2022/05/01 04:21:49;;;;;;;15.40;12.05;;;;;;;1.16;100.00;93300.50;2098196;28;20052;-81
2022/05/01 04:22:50;;;;;;;15.45;11.65;;;;;;;1.15;100.00;93309.50;2106612;28;20073;-81
2022/05/01 04:23:51;;;;;;;15.35;11.20;;;;;;;0.97;100.00;93311.09;2106648;28;20054;-79
2022/05/01 04:24:53;;;;;;;17.33;13.38;;;;;;;0.87;100.00;93312.38;2098279;28;20033;-82
2022/05/01 04:25:54;;;;;;;14.15;11.90;;;;;;;0.78;100.00;93311.09;2105728;28;20035;-82
2022/05/01 04:26:55;;;;;;;16.00;12.13;;;;;;;0.77;100.00;93312.97;2106452;28;20024;-81
2022/05/01 04:28:02;;;;;;;14.40;12.55;;;;;;;0.64;100.00;93301.09;2106588;28;20369;-79
2022/05/01 04:30:26;;;;;;;15.43;12.27;;;;;;;0.82;100.00;93315.31;2103436;28;20035;-79
2022/05/01 04:31:27;;;;;;;13.77;12.13;;;;;;;0.80;100.00;93312.28;2097930;28;20484;-82
2022/05/01 04:32:28;;;;;;;15.75;11.38;;;;;;;0.80;100.00;93309.66;2089982;28;20048;-82
2022/05/01 04:33:29;;;;;;;16.17;11.93;;;;;;;0.71;100.00;93309.13;2098021;28;20024;-79
2022/05/01 04:34:31;;;;;;;16.67;12.80;;;;;;;0.67;100.00;93311.66;2089833;28;20028;-80
2022/05/01 04:35:40;;;;;;;15.07;12.50;;;;;;;0.71;100.00;93309.88;2097724;28;20024;-82
2022/05/01 04:36:42;;;;;;;14.65;12.20;;;;;;;0.63;100.00;93320.59;2097731;28;20500;-81
2022/05/01 04:37:43;;;;;;;15.23;12.23;;;;;;;0.63;100.00;93312.72;2093123;28;20028;-79
2022/05/01 04:38:45;;;;;;;17.40;12.45;;;;;;;0.69;100.00;93319.97;2097853;28;20020;-81
2022/05/01 04:39:48;;;;;;;15.65;11.75;;;;;;;0.68;100.00;93315.81;2098526;28;20016;-81
2022/05/01 04:40:58;;;;;;;13.02;11.63;;;;;;;0.66;100.00;93319.91;2106730;28;20020;-81
2022/05/01 04:41:59;;;;;;;13.55;11.07;;;;;;;0.66;100.00;93325.16;2099391;28;20029;-80
2022/05/01 04:43:17;;;;;;;14.13;10.95;;;;;;;0.68;100.00;93328.22;2106272;28;20330;-82
2022/05/01 04:44:18;;;;;;;12.05;10.52;;;;;;;0.72;100.00;93327.16;2110895;27;20039;-80
2022/05/01 04:45:18;;;;;;;14.70;11.63;;;;;;;0.63;100.00;93320.59;2106256;28;20031;-80
2022/05/01 04:46:19;;;;;;;12.93;11.10;;;;;;;0.72;100.00;93332.44;2098223;28;20020;-82
2022/05/01 04:47:20;;;;;;;12.05;10.75;;;;;;;0.69;100.00;93329.72;2106327;28;20751;-81
2022/05/01 04:48:23;;;;;;;12.18;10.85;;;;;;;0.69;100.00;93327.09;2098166;28;20086;-80
2022/05/01 04:49:25;;;;;;;11.02;9.93;;;;;;;0.73;100.00;93328.69;2089710;28;20162;-81
2022/05/01 04:50:26;;;;;;;12.00;10.75;;;;;;;0.74;100.00;93332.06;2086685;28;20116;-80
2022/05/01 04:51:27;;;;;;;14.90;10.70;;;;;;;1.06;100.00;93339.81;2089760;28;20031;-79
2022/05/01 04:52:29;;;;;;;18.25;10.63;;;;;;;0.69;100.00;93341.00;2089625;28;20515;-80
2022/05/01 04:53:30;;;;;;;11.20;10.10;;;;;;;0.66;100.00;93340.94;2098012;28;20034;-82
2022/05/01 04:54:31;;;;;;;10.98;9.88;;;;;;;0.74;100.00;93337.34;2106218;28;20469;-80
2022/05/01 04:55:33;;;;;;;16.90;10.45;;;;;;;0.90;100.00;93337.25;2106269;28;20020;-80
2022/05/01 04:57:54;;;;;;;59.78;10.65;;;;;;;0.57;100.00;93343.81;2094692;28;20406;-80
2022/05/01 04:58:55;;;;;;;27.05;11.55;;;;;;;0.62;100.00;93345.41;2106375;28;20362;-80
2022/05/01 04:59:56;;;;;;;22.63;10.45;;;;;;;0.85;100.00;93343.56;2097900;28;20024;-81
2022/05/01 05:00:57;;;;;;;72.43;10.13;;;;;;;0.70;100.00;93345.19;2087098;28;20389;-83
2022/05/01 05:01:58;;;;;;;54.83;10.38;;;;;;;0.67;100.00;93350.38;2096901;28;20043;-81
2022/05/01 05:02:59;;;;;;;25.23;10.07;;;;;;;0.66;100.00;93346.19;2098011;28;20078;-82